DLH1WC EDDM-EPWA
Flight info
| Callsign | DLH1WC |
|---|---|
| Flight time | 1h 25m |
| Altitude | 35000 |
| Route | BIBAG Y133 BEPAS DCT LEGAZ DCT LAGAR DCT OKENO DCT GOGUS DCT AGAVA |
| Aircraft | A21N/M-SDE2E3FGHIRWXY/LB1 |
Departure
| Time | 2026-05-06 09:11 |
|---|---|
| Airport | Munich Airport (EDDM) |
Arrival
| Time | 2026-05-06 10:37 |
|---|---|
| Airport | Warsaw Chopin Airport (EPWA) |
| Time | Latitude | Longitude | Altitude | Speed | Heading |
|---|---|---|---|---|---|
| 2026-05-06 08:34 | 48.35208 | 11.79785 | 1472 ft | 0 kts | 83° |
| 2026-05-06 08:59 | 48.35206 | 11.79765 | 1473 ft | 2 kts | 83° |
| 2026-05-06 09:00 | 48.35205 | 11.79743 | 1473 ft | 2 kts | 83° |
| 2026-05-06 09:00 | 48.35203 | 11.79721 | 1473 ft | 2 kts | 83° |
| 2026-05-06 09:00 | 48.35201 | 11.79698 | 1473 ft | 2 kts | 83° |
| 2026-05-06 09:00 | 48.35199 | 11.79676 | 1473 ft | 2 kts | 83° |
| 2026-05-06 09:01 | 48.35198 | 11.79653 | 1473 ft | 1 kts | 69° |
| 2026-05-06 09:01 | 48.35187 | 11.79637 | 1473 ft | 2 kts | 18° |
| 2026-05-06 09:01 | 48.35173 | 11.79637 | 1473 ft | 2 kts | 346° |
| 2026-05-06 09:01 | 48.35158 | 11.79643 | 1473 ft | 2 kts | 335° |
| 2026-05-06 09:02 | 48.35146 | 11.79655 | 1473 ft | 2 kts | 315° |
| 2026-05-06 09:02 | 48.35136 | 11.79673 | 1473 ft | 2 kts | 295° |
| 2026-05-06 09:02 | 48.35132 | 11.79695 | 1473 ft | 2 kts | 279° |
| 2026-05-06 09:02 | 48.35131 | 11.79718 | 1473 ft | 2 kts | 267° |
| 2026-05-06 09:03 | 48.35133 | 11.79740 | 1473 ft | 2 kts | 261° |
| 2026-05-06 09:03 | 48.35134 | 11.79751 | 1473 ft | 0 kts | 263° |
| 2026-05-06 09:06 | 48.35128 | 11.79706 | 1473 ft | 9 kts | 250° |
| 2026-05-06 09:06 | 48.35044 | 11.79661 | 1474 ft | 16 kts | 171° |
| 2026-05-06 09:06 | 48.34936 | 11.79679 | 1474 ft | 15 kts | 174° |
| 2026-05-06 09:07 | 48.34833 | 11.79695 | 1474 ft | 14 kts | 174° |
| 2026-05-06 09:07 | 48.34734 | 11.79716 | 1474 ft | 13 kts | 158° |
| 2026-05-06 09:07 | 48.34703 | 11.79841 | 1474 ft | 13 kts | 84° |
| 2026-05-06 09:07 | 48.34715 | 11.79984 | 1474 ft | 13 kts | 83° |
| 2026-05-06 09:08 | 48.34735 | 11.80123 | 1474 ft | 13 kts | 69° |
| 2026-05-06 09:08 | 48.34753 | 11.80259 | 1473 ft | 13 kts | 83° |
| 2026-05-06 09:08 | 48.34749 | 11.80392 | 1473 ft | 12 kts | 141° |
| 2026-05-06 09:08 | 48.34683 | 11.80407 | 1473 ft | 0 kts | 174° |
| 2026-05-06 09:09 | 48.34667 | 11.80410 | 1473 ft | 6 kts | 174° |
| 2026-05-06 09:09 | 48.34600 | 11.80420 | 1474 ft | 12 kts | 176° |
| 2026-05-06 09:09 | 48.34505 | 11.80391 | 1474 ft | 15 kts | 212° |
| 2026-05-06 09:10 | 48.34465 | 11.80297 | 1474 ft | 0 kts | 264° |
| 2026-05-06 09:10 | 48.34465 | 11.80292 | 1474 ft | 0 kts | 264° |
| 2026-05-06 09:10 | 48.34465 | 11.80284 | 1474 ft | 1 kts | 264° |
| 2026-05-06 09:10 | 48.34445 | 11.80022 | 1475 ft | 60 kts | 264° |
| 2026-05-06 09:11 | 48.34371 | 11.79056 | 1478 ft | 123 kts | 264° |
| 2026-05-06 09:11 | 48.34251 | 11.77494 | 1485 ft | 175 kts | 264° |
| 2026-05-06 09:11 | 48.34110 | 11.75649 | 1992 ft | 180 kts | 264° |
| 2026-05-06 09:11 | 48.33952 | 11.73756 | 2578 ft | 186 kts | 263° |
| 2026-05-06 09:12 | 48.33567 | 11.71922 | 3172 ft | 192 kts | 234° |
| 2026-05-06 09:12 | 48.32505 | 11.70677 | 3637 ft | 204 kts | 198° |
| 2026-05-06 09:12 | 48.31067 | 11.70438 | 4096 ft | 217 kts | 179° |
| 2026-05-06 09:12 | 48.29534 | 11.70501 | 4563 ft | 224 kts | 172° |
| 2026-05-06 09:13 | 48.28044 | 11.71226 | 4988 ft | 231 kts | 149° |
| 2026-05-06 09:13 | 48.26668 | 11.72607 | 5289 ft | 246 kts | 143° |
| 2026-05-06 09:13 | 48.25235 | 11.74182 | 5601 ft | 263 kts | 143° |
| 2026-05-06 09:13 | 48.23726 | 11.75800 | 6111 ft | 271 kts | 144° |
| 2026-05-06 09:14 | 48.22184 | 11.77406 | 6778 ft | 272 kts | 145° |
| 2026-05-06 09:14 | 48.20630 | 11.78999 | 7437 ft | 274 kts | 145° |
| 2026-05-06 09:14 | 48.19159 | 11.80830 | 8058 ft | 277 kts | 128° |
| 2026-05-06 09:14 | 48.18339 | 11.83400 | 8666 ft | 280 kts | 102° |
| 2026-05-06 09:15 | 48.18307 | 11.86310 | 9301 ft | 283 kts | 86° |
| 2026-05-06 09:15 | 48.18527 | 11.89242 | 9871 ft | 287 kts | 85° |
| 2026-05-06 09:15 | 48.18762 | 11.92222 | 10367 ft | 294 kts | 86° |
| 2026-05-06 09:15 | 48.19000 | 11.95321 | 10867 ft | 301 kts | 87° |
| 2026-05-06 09:16 | 48.19230 | 11.98446 | 11374 ft | 306 kts | 88° |
| 2026-05-06 09:16 | 48.19460 | 12.01640 | 11873 ft | 312 kts | 88° |
| 2026-05-06 09:16 | 48.19691 | 12.04916 | 12373 ft | 317 kts | 88° |
| 2026-05-06 09:16 | 48.19921 | 12.08229 | 12914 ft | 321 kts | 88° |
| 2026-05-06 09:17 | 48.20150 | 12.11549 | 13470 ft | 323 kts | 88° |
| 2026-05-06 09:17 | 48.20380 | 12.14878 | 14004 ft | 326 kts | 88° |
| 2026-05-06 09:17 | 48.20613 | 12.18257 | 14529 ft | 328 kts | 88° |
| 2026-05-06 09:17 | 48.20846 | 12.21657 | 15048 ft | 331 kts | 88° |
| 2026-05-06 09:18 | 48.21083 | 12.25126 | 15557 ft | 333 kts | 88° |
| 2026-05-06 09:18 | 48.21318 | 12.28578 | 16053 ft | 336 kts | 88° |
| 2026-05-06 09:18 | 48.21554 | 12.32062 | 16544 ft | 338 kts | 88° |
| 2026-05-06 09:18 | 48.21793 | 12.35582 | 17018 ft | 341 kts | 88° |
| 2026-05-06 09:19 | 48.22030 | 12.39117 | 17490 ft | 343 kts | 88° |
| 2026-05-06 09:19 | 48.22268 | 12.42675 | 17959 ft | 345 kts | 88° |
| 2026-05-06 09:19 | 48.22509 | 12.46292 | 18415 ft | 348 kts | 88° |
| 2026-05-06 09:19 | 48.22749 | 12.49900 | 18851 ft | 350 kts | 88° |
| 2026-05-06 09:20 | 48.23035 | 12.53531 | 19266 ft | 355 kts | 81° |
| 2026-05-06 09:20 | 48.23972 | 12.56979 | 19612 ft | 367 kts | 57° |
| 2026-05-06 09:20 | 48.25749 | 12.59742 | 19836 ft | 377 kts | 38° |
| 2026-05-06 09:20 | 48.27911 | 12.62103 | 20029 ft | 387 kts | 35° |
| 2026-05-06 09:21 | 48.30136 | 12.64422 | 20222 ft | 396 kts | 35° |
| 2026-05-06 09:21 | 48.32420 | 12.66856 | 20393 ft | 406 kts | 36° |
| 2026-05-06 09:21 | 48.34719 | 12.69377 | 20561 ft | 415 kts | 37° |
| 2026-05-06 09:21 | 48.37075 | 12.72020 | 20722 ft | 423 kts | 40° |
| 2026-05-06 09:22 | 48.39154 | 12.75112 | 20864 ft | 429 kts | 54° |
| 2026-05-06 09:22 | 48.40703 | 12.78945 | 21121 ft | 429 kts | 70° |
| 2026-05-06 09:22 | 48.41753 | 12.83132 | 21505 ft | 428 kts | 75° |
| 2026-05-06 09:22 | 48.42690 | 12.87402 | 21842 ft | 430 kts | 76° |
| 2026-05-06 09:23 | 48.43625 | 12.91700 | 22146 ft | 434 kts | 75° |
| 2026-05-06 09:23 | 48.44583 | 12.95998 | 22464 ft | 436 kts | 75° |
| 2026-05-06 09:23 | 48.45567 | 13.00323 | 22780 ft | 439 kts | 75° |
| 2026-05-06 09:23 | 48.46572 | 13.04703 | 23083 ft | 442 kts | 74° |
| 2026-05-06 09:24 | 48.47589 | 13.09044 | 23372 ft | 445 kts | 71° |
| 2026-05-06 09:24 | 48.49089 | 13.13178 | 23616 ft | 454 kts | 54° |
| 2026-05-06 09:24 | 48.51293 | 13.16578 | 23900 ft | 458 kts | 37° |
| 2026-05-06 09:24 | 48.53974 | 13.19194 | 24215 ft | 459 kts | 30° |
| 2026-05-06 09:25 | 48.56765 | 13.21600 | 24486 ft | 462 kts | 28° |
| 2026-05-06 09:25 | 48.59562 | 13.23975 | 24744 ft | 465 kts | 28° |
| 2026-05-06 09:25 | 48.62389 | 13.26408 | 25010 ft | 467 kts | 29° |
| 2026-05-06 09:25 | 48.65190 | 13.28859 | 25276 ft | 469 kts | 29° |
| 2026-05-06 09:26 | 48.68024 | 13.31369 | 25535 ft | 471 kts | 29° |
| 2026-05-06 09:26 | 48.70843 | 13.33883 | 25801 ft | 473 kts | 29° |
| 2026-05-06 09:26 | 48.73649 | 13.36393 | 26056 ft | 475 kts | 29° |
| 2026-05-06 09:26 | 48.76509 | 13.38959 | 26296 ft | 477 kts | 29° |
| 2026-05-06 09:27 | 48.79374 | 13.41531 | 26514 ft | 480 kts | 29° |
| 2026-05-06 09:27 | 48.82249 | 13.44117 | 26716 ft | 482 kts | 29° |
| 2026-05-06 09:27 | 48.85130 | 13.46712 | 26928 ft | 485 kts | 29° |
| 2026-05-06 09:27 | 48.88036 | 13.49320 | 27150 ft | 487 kts | 28° |
| 2026-05-06 09:28 | 48.90974 | 13.51743 | 27378 ft | 488 kts | 24° |
| 2026-05-06 09:28 | 48.94056 | 13.54012 | 27599 ft | 489 kts | 22° |
| 2026-05-06 09:28 | 48.97131 | 13.56187 | 27810 ft | 491 kts | 22° |
| 2026-05-06 09:28 | 49.00237 | 13.58363 | 28022 ft | 493 kts | 22° |
| 2026-05-06 09:29 | 49.03340 | 13.60541 | 28237 ft | 495 kts | 22° |
| 2026-05-06 09:29 | 49.06478 | 13.62751 | 28451 ft | 497 kts | 22° |
| 2026-05-06 09:29 | 49.09594 | 13.64956 | 28658 ft | 498 kts | 22° |
| 2026-05-06 09:29 | 49.12746 | 13.67191 | 28847 ft | 500 kts | 22° |
| 2026-05-06 09:30 | 49.15926 | 13.69452 | 29041 ft | 501 kts | 22° |
| 2026-05-06 09:30 | 49.19070 | 13.71692 | 29298 ft | 501 kts | 22° |
| 2026-05-06 09:30 | 49.22226 | 13.73946 | 29567 ft | 501 kts | 22° |
| 2026-05-06 09:30 | 49.25365 | 13.76192 | 29818 ft | 501 kts | 22° |
| 2026-05-06 09:31 | 49.28519 | 13.78450 | 30051 ft | 501 kts | 22° |
| 2026-05-06 09:31 | 49.31640 | 13.80688 | 30270 ft | 502 kts | 22° |
| 2026-05-06 09:31 | 49.34794 | 13.82951 | 30518 ft | 502 kts | 22° |
| 2026-05-06 09:31 | 49.37937 | 13.85210 | 30801 ft | 501 kts | 22° |
| 2026-05-06 09:32 | 49.41098 | 13.87486 | 31094 ft | 499 kts | 22° |
| 2026-05-06 09:32 | 49.44243 | 13.89756 | 31373 ft | 499 kts | 22° |
| 2026-05-06 09:32 | 49.47361 | 13.92006 | 31633 ft | 498 kts | 22° |
| 2026-05-06 09:32 | 49.50462 | 13.94248 | 31879 ft | 498 kts | 22° |
| 2026-05-06 09:33 | 49.53608 | 13.96526 | 32136 ft | 497 kts | 22° |
| 2026-05-06 09:33 | 49.56703 | 13.98772 | 32414 ft | 496 kts | 22° |
| 2026-05-06 09:33 | 49.59826 | 14.01039 | 32677 ft | 495 kts | 22° |
| 2026-05-06 09:33 | 49.62955 | 14.03313 | 32942 ft | 494 kts | 22° |
| 2026-05-06 09:34 | 49.66048 | 14.05567 | 33163 ft | 494 kts | 22° |
| 2026-05-06 09:34 | 49.69161 | 14.07839 | 33340 ft | 495 kts | 22° |
| 2026-05-06 09:34 | 49.72237 | 14.10086 | 33529 ft | 496 kts | 22° |
| 2026-05-06 09:34 | 49.75377 | 14.12385 | 33736 ft | 496 kts | 22° |
| 2026-05-06 09:35 | 49.78453 | 14.14638 | 33924 ft | 496 kts | 22° |
| 2026-05-06 09:35 | 49.81599 | 14.16946 | 34101 ft | 497 kts | 22° |
| 2026-05-06 09:35 | 49.84721 | 14.19238 | 34281 ft | 498 kts | 22° |
| 2026-05-06 09:35 | 49.87819 | 14.21516 | 34471 ft | 498 kts | 22° |
| 2026-05-06 09:36 | 49.90932 | 14.23809 | 34666 ft | 498 kts | 22° |
| 2026-05-06 09:36 | 49.94049 | 14.26108 | 34812 ft | 498 kts | 22° |
| 2026-05-06 09:36 | 49.97189 | 14.28428 | 34819 ft | 498 kts | 22° |
| 2026-05-06 09:37 | 50.03429 | 14.33048 | 34824 ft | 498 kts | 23° |
| 2026-05-06 09:37 | 50.09662 | 14.37675 | 34824 ft | 498 kts | 23° |
| 2026-05-06 09:38 | 50.15888 | 14.42312 | 34824 ft | 498 kts | 23° |
| 2026-05-06 09:38 | 50.22126 | 14.46969 | 34826 ft | 497 kts | 23° |
| 2026-05-06 09:39 | 50.28341 | 14.51623 | 34824 ft | 497 kts | 23° |
| 2026-05-06 09:39 | 50.34550 | 14.56287 | 34819 ft | 497 kts | 23° |
| 2026-05-06 09:40 | 50.40754 | 14.60959 | 34810 ft | 496 kts | 23° |
| 2026-05-06 09:40 | 50.50063 | 14.67995 | 34799 ft | 497 kts | 24° |
| 2026-05-06 09:41 | 50.56319 | 14.72742 | 34797 ft | 497 kts | 24° |
| 2026-05-06 09:41 | 50.62181 | 14.78403 | 34795 ft | 499 kts | 39° |
| 2026-05-06 09:42 | 50.66867 | 14.86391 | 34796 ft | 497 kts | 57° |
| 2026-05-06 09:42 | 50.69982 | 14.96036 | 34799 ft | 493 kts | 71° |
| 2026-05-06 09:43 | 50.72333 | 15.06167 | 34797 ft | 492 kts | 73° |
| 2026-05-06 09:43 | 50.74696 | 15.16344 | 34796 ft | 493 kts | 72° |
| 2026-05-06 09:44 | 50.77099 | 15.26489 | 34796 ft | 494 kts | 72° |
| 2026-05-06 09:44 | 50.79489 | 15.36581 | 34796 ft | 494 kts | 72° |
| 2026-05-06 09:45 | 50.82029 | 15.46653 | 34796 ft | 494 kts | 70° |
| 2026-05-06 09:45 | 50.84629 | 15.56694 | 34795 ft | 494 kts | 70° |
| 2026-05-06 09:46 | 50.87215 | 15.66777 | 34795 ft | 495 kts | 71° |
| 2026-05-06 09:46 | 50.89793 | 15.76905 | 34796 ft | 494 kts | 71° |
| 2026-05-06 09:47 | 50.92329 | 15.86933 | 34795 ft | 494 kts | 71° |
| 2026-05-06 09:47 | 50.94874 | 15.97042 | 34792 ft | 494 kts | 71° |
| 2026-05-06 09:48 | 50.97424 | 16.07213 | 34787 ft | 494 kts | 71° |
| 2026-05-06 09:48 | 50.99930 | 16.17264 | 34783 ft | 494 kts | 71° |
| 2026-05-06 09:49 | 51.02462 | 16.27464 | 34779 ft | 494 kts | 71° |
| 2026-05-06 09:49 | 51.04966 | 16.37598 | 34774 ft | 494 kts | 71° |
| 2026-05-06 09:50 | 51.07462 | 16.47740 | 34771 ft | 494 kts | 71° |
| 2026-05-06 09:50 | 51.09939 | 16.57855 | 34769 ft | 493 kts | 71° |
| 2026-05-06 09:51 | 51.12420 | 16.68030 | 34769 ft | 493 kts | 72° |
| 2026-05-06 09:51 | 51.14900 | 16.78253 | 34769 ft | 493 kts | 72° |
| 2026-05-06 09:52 | 51.17352 | 16.88406 | 34770 ft | 492 kts | 72° |
| 2026-05-06 09:52 | 51.19797 | 16.98578 | 34770 ft | 491 kts | 72° |
| 2026-05-06 09:53 | 51.22219 | 17.08700 | 34770 ft | 491 kts | 72° |
| 2026-05-06 09:53 | 51.24651 | 17.18908 | 34771 ft | 491 kts | 72° |
| 2026-05-06 09:54 | 51.27060 | 17.29067 | 34770 ft | 490 kts | 72° |
| 2026-05-06 09:54 | 51.29453 | 17.39203 | 34770 ft | 489 kts | 72° |
| 2026-05-06 09:55 | 51.31849 | 17.49408 | 34770 ft | 489 kts | 72° |
| 2026-05-06 09:55 | 51.34207 | 17.59502 | 34770 ft | 489 kts | 72° |
| 2026-05-06 09:56 | 51.36588 | 17.69731 | 34770 ft | 487 kts | 73° |
| 2026-05-06 09:56 | 51.38945 | 17.79911 | 34770 ft | 486 kts | 73° |
| 2026-05-06 09:57 | 51.41270 | 17.90006 | 34770 ft | 485 kts | 73° |
| 2026-05-06 09:57 | 51.43590 | 18.00118 | 34770 ft | 485 kts | 73° |
| 2026-05-06 09:58 | 51.45851 | 18.10027 | 34770 ft | 484 kts | 73° |
| 2026-05-06 09:58 | 51.48154 | 18.20163 | 34770 ft | 483 kts | 73° |
| 2026-05-06 09:59 | 51.50447 | 18.30306 | 34769 ft | 483 kts | 73° |
| 2026-05-06 09:59 | 51.52731 | 18.40450 | 34770 ft | 483 kts | 73° |
| 2026-05-06 10:00 | 51.54935 | 18.50625 | 34487 ft | 485 kts | 77° |
| 2026-05-06 10:00 | 51.55810 | 18.55821 | 33677 ft | 487 kts | 81° |
| 2026-05-06 10:00 | 51.56472 | 18.61164 | 32892 ft | 487 kts | 84° |
| 2026-05-06 10:01 | 51.56916 | 18.66591 | 32090 ft | 488 kts | 89° |
| 2026-05-06 10:01 | 51.57139 | 18.72032 | 31276 ft | 488 kts | 92° |
| 2026-05-06 10:01 | 51.57221 | 18.77551 | 30445 ft | 491 kts | 93° |
| 2026-05-06 10:01 | 51.57277 | 18.83057 | 29615 ft | 494 kts | 93° |
| 2026-05-06 10:02 | 51.57328 | 18.88514 | 28814 ft | 496 kts | 93° |
| 2026-05-06 10:02 | 51.57383 | 18.94029 | 28186 ft | 493 kts | 92° |
| 2026-05-06 10:02 | 51.57443 | 18.99554 | 27691 ft | 487 kts | 92° |
| 2026-05-06 10:02 | 51.57502 | 19.04963 | 27194 ft | 481 kts | 92° |
| 2026-05-06 10:03 | 51.57558 | 19.10267 | 26702 ft | 476 kts | 92° |
| 2026-05-06 10:03 | 51.57613 | 19.15585 | 26203 ft | 472 kts | 92° |
| 2026-05-06 10:03 | 51.57663 | 19.20780 | 25709 ft | 467 kts | 92° |
| 2026-05-06 10:03 | 51.57711 | 19.25979 | 25212 ft | 463 kts | 92° |
| 2026-05-06 10:04 | 51.57757 | 19.31146 | 24710 ft | 459 kts | 91° |
| 2026-05-06 10:04 | 51.57799 | 19.36192 | 24218 ft | 455 kts | 91° |
| 2026-05-06 10:04 | 51.57839 | 19.41298 | 23720 ft | 451 kts | 91° |
| 2026-05-06 10:04 | 51.57879 | 19.46289 | 23232 ft | 447 kts | 91° |
| 2026-05-06 10:05 | 51.57915 | 19.51273 | 22745 ft | 444 kts | 91° |
| 2026-05-06 10:05 | 51.57948 | 19.56191 | 22262 ft | 440 kts | 91° |
| 2026-05-06 10:05 | 51.57978 | 19.61055 | 21781 ft | 436 kts | 91° |
| 2026-05-06 10:05 | 51.58006 | 19.65903 | 21299 ft | 433 kts | 92° |
| 2026-05-06 10:06 | 51.58032 | 19.70738 | 20819 ft | 429 kts | 92° |
| 2026-05-06 10:06 | 51.58055 | 19.75500 | 20343 ft | 426 kts | 92° |
| 2026-05-06 10:06 | 51.58077 | 19.80231 | 19865 ft | 423 kts | 92° |
| 2026-05-06 10:06 | 51.58096 | 19.84941 | 19388 ft | 419 kts | 92° |
| 2026-05-06 10:07 | 51.58112 | 19.89655 | 18944 ft | 415 kts | 92° |
| 2026-05-06 10:07 | 51.58128 | 19.94232 | 18723 ft | 404 kts | 93° |
| 2026-05-06 10:07 | 51.58062 | 19.98666 | 18631 ft | 391 kts | 96° |
| 2026-05-06 10:07 | 51.57931 | 20.03016 | 18657 ft | 391 kts | 96° |
| 2026-05-06 10:08 | 51.57788 | 20.07362 | 18633 ft | 392 kts | 96° |
| 2026-05-06 10:08 | 51.57642 | 20.11735 | 18162 ft | 392 kts | 97° |
| 2026-05-06 10:08 | 51.57180 | 20.16007 | 17647 ft | 391 kts | 114° |
| 2026-05-06 10:08 | 51.55866 | 20.19793 | 17548 ft | 384 kts | 133° |
| 2026-05-06 10:09 | 51.53972 | 20.22671 | 17456 ft | 377 kts | 150° |
| 2026-05-06 10:09 | 51.51613 | 20.24400 | 17204 ft | 366 kts | 169° |
| 2026-05-06 10:09 | 51.49160 | 20.25179 | 16965 ft | 363 kts | 174° |
| 2026-05-06 10:09 | 51.46663 | 20.25746 | 16821 ft | 361 kts | 175° |
| 2026-05-06 10:10 | 51.44170 | 20.26156 | 16686 ft | 358 kts | 184° |
| 2026-05-06 10:10 | 51.41759 | 20.25461 | 16554 ft | 352 kts | 202° |
| 2026-05-06 10:10 | 51.39673 | 20.23452 | 16427 ft | 350 kts | 222° |
| 2026-05-06 10:10 | 51.38183 | 20.20406 | 16301 ft | 351 kts | 242° |
| 2026-05-06 10:11 | 51.37456 | 20.16696 | 16179 ft | 355 kts | 259° |
| 2026-05-06 10:11 | 51.37263 | 20.12744 | 16060 ft | 356 kts | 266° |
| 2026-05-06 10:11 | 51.37358 | 20.08770 | 16029 ft | 358 kts | 271° |
| 2026-05-06 10:11 | 51.37559 | 20.04796 | 16030 ft | 358 kts | 271° |
| 2026-05-06 10:12 | 51.37780 | 20.00822 | 16030 ft | 358 kts | 272° |
| 2026-05-06 10:12 | 51.38002 | 19.96868 | 16031 ft | 358 kts | 272° |
| 2026-05-06 10:12 | 51.38223 | 19.92914 | 16032 ft | 357 kts | 272° |
| 2026-05-06 10:12 | 51.38546 | 19.88971 | 15962 ft | 362 kts | 282° |
| 2026-05-06 10:13 | 51.39699 | 19.85358 | 15698 ft | 371 kts | 306° |
| 2026-05-06 10:13 | 51.41666 | 19.82683 | 15451 ft | 379 kts | 327° |
| 2026-05-06 10:13 | 51.44127 | 19.81200 | 15201 ft | 385 kts | 347° |
| 2026-05-06 10:13 | 51.46814 | 19.81142 | 14948 ft | 390 kts | 8° |
| 2026-05-06 10:14 | 51.49351 | 19.82587 | 14697 ft | 392 kts | 30° |
| 2026-05-06 10:14 | 51.51428 | 19.85409 | 14444 ft | 391 kts | 52° |
| 2026-05-06 10:14 | 51.52731 | 19.89193 | 14193 ft | 385 kts | 74° |
| 2026-05-06 10:14 | 51.53432 | 19.93336 | 13954 ft | 382 kts | 79° |
| 2026-05-06 10:15 | 51.54037 | 19.97494 | 13703 ft | 381 kts | 79° |
| 2026-05-06 10:15 | 51.54641 | 20.01617 | 13454 ft | 379 kts | 79° |
| 2026-05-06 10:15 | 51.55259 | 20.05714 | 13204 ft | 378 kts | 79° |
| 2026-05-06 10:15 | 51.55887 | 20.09783 | 12955 ft | 376 kts | 78° |
| 2026-05-06 10:16 | 51.56522 | 20.13834 | 12706 ft | 375 kts | 78° |
| 2026-05-06 10:16 | 51.57162 | 20.17893 | 12456 ft | 374 kts | 78° |
| 2026-05-06 10:16 | 51.57809 | 20.21975 | 12203 ft | 372 kts | 78° |
| 2026-05-06 10:16 | 51.58448 | 20.26004 | 11952 ft | 371 kts | 78° |
| 2026-05-06 10:17 | 51.59076 | 20.29970 | 11705 ft | 369 kts | 78° |
| 2026-05-06 10:17 | 51.59706 | 20.33964 | 11455 ft | 368 kts | 78° |
| 2026-05-06 10:17 | 51.60336 | 20.37965 | 11203 ft | 366 kts | 78° |
| 2026-05-06 10:17 | 51.60955 | 20.41907 | 10953 ft | 365 kts | 78° |
| 2026-05-06 10:18 | 51.61577 | 20.45869 | 10781 ft | 363 kts | 78° |
| 2026-05-06 10:18 | 51.62189 | 20.49779 | 10776 ft | 362 kts | 78° |
| 2026-05-06 10:18 | 51.62799 | 20.53700 | 10773 ft | 363 kts | 78° |
| 2026-05-06 10:18 | 51.63413 | 20.57650 | 10772 ft | 364 kts | 78° |
| 2026-05-06 10:19 | 51.64036 | 20.61649 | 10772 ft | 364 kts | 78° |
| 2026-05-06 10:19 | 51.64642 | 20.65552 | 10771 ft | 363 kts | 79° |
| 2026-05-06 10:19 | 51.65260 | 20.69563 | 10772 ft | 364 kts | 79° |
| 2026-05-06 10:19 | 51.65865 | 20.73484 | 10772 ft | 364 kts | 79° |
| 2026-05-06 10:20 | 51.66478 | 20.77475 | 10772 ft | 364 kts | 79° |
| 2026-05-06 10:20 | 51.67115 | 20.81387 | 10765 ft | 366 kts | 73° |
| 2026-05-06 10:20 | 51.68416 | 20.84926 | 10755 ft | 370 kts | 46° |
| 2026-05-06 10:20 | 51.70520 | 20.87239 | 10762 ft | 370 kts | 20° |
| 2026-05-06 10:21 | 51.73013 | 20.88168 | 10779 ft | 369 kts | 6° |
| 2026-05-06 10:21 | 51.75582 | 20.88646 | 10776 ft | 369 kts | 4° |
| 2026-05-06 10:21 | 51.78118 | 20.89137 | 10773 ft | 370 kts | 6° |
| 2026-05-06 10:21 | 51.80638 | 20.89738 | 10773 ft | 370 kts | 7° |
| 2026-05-06 10:22 | 51.83197 | 20.90434 | 10772 ft | 370 kts | 8° |
| 2026-05-06 10:22 | 51.85720 | 20.91173 | 10772 ft | 370 kts | 9° |
| 2026-05-06 10:22 | 51.88230 | 20.91938 | 10772 ft | 371 kts | 9° |
| 2026-05-06 10:22 | 51.90780 | 20.92729 | 10528 ft | 371 kts | 9° |
| 2026-05-06 10:23 | 51.93279 | 20.93510 | 10274 ft | 362 kts | 9° |
| 2026-05-06 10:23 | 51.95705 | 20.94274 | 10151 ft | 349 kts | 9° |
| 2026-05-06 10:23 | 51.98024 | 20.95002 | 10021 ft | 337 kts | 9° |
| 2026-05-06 10:23 | 52.00274 | 20.95705 | 9886 ft | 325 kts | 9° |
| 2026-05-06 10:24 | 52.02472 | 20.96394 | 9722 ft | 315 kts | 10° |
| 2026-05-06 10:24 | 52.04625 | 20.96979 | 9311 ft | 315 kts | 1° |
| 2026-05-06 10:24 | 52.06732 | 20.96340 | 8878 ft | 308 kts | 329° |
| 2026-05-06 10:24 | 52.08303 | 20.94125 | 8484 ft | 294 kts | 298° |
| 2026-05-06 10:25 | 52.09168 | 20.91219 | 8170 ft | 286 kts | 288° |
| 2026-05-06 10:25 | 52.09919 | 20.88214 | 7836 ft | 283 kts | 288° |
| 2026-05-06 10:25 | 52.10679 | 20.85261 | 7515 ft | 279 kts | 289° |
| 2026-05-06 10:25 | 52.11432 | 20.82464 | 7454 ft | 265 kts | 290° |
| 2026-05-06 10:26 | 52.12188 | 20.79725 | 7407 ft | 261 kts | 290° |
| 2026-05-06 10:26 | 52.12935 | 20.77033 | 7164 ft | 261 kts | 290° |
| 2026-05-06 10:26 | 52.13682 | 20.74350 | 6836 ft | 259 kts | 290° |
| 2026-05-06 10:26 | 52.14419 | 20.71703 | 6520 ft | 256 kts | 290° |
| 2026-05-06 10:27 | 52.15152 | 20.69068 | 6203 ft | 253 kts | 290° |
| 2026-05-06 10:27 | 52.15866 | 20.66501 | 5889 ft | 251 kts | 290° |
| 2026-05-06 10:27 | 52.16591 | 20.63887 | 5572 ft | 255 kts | 290° |
| 2026-05-06 10:27 | 52.17319 | 20.61253 | 5265 ft | 248 kts | 290° |
| 2026-05-06 10:28 | 52.18021 | 20.58733 | 4953 ft | 246 kts | 290° |
| 2026-05-06 10:28 | 52.18714 | 20.56242 | 4896 ft | 234 kts | 290° |
| 2026-05-06 10:28 | 52.19377 | 20.53846 | 4924 ft | 232 kts | 290° |
| 2026-05-06 10:28 | 52.20036 | 20.51450 | 4947 ft | 232 kts | 290° |
| 2026-05-06 10:29 | 52.20696 | 20.49051 | 4976 ft | 229 kts | 290° |
| 2026-05-06 10:29 | 52.21344 | 20.46697 | 4990 ft | 227 kts | 290° |
| 2026-05-06 10:29 | 52.21989 | 20.44352 | 4980 ft | 229 kts | 290° |
| 2026-05-06 10:29 | 52.22775 | 20.42125 | 4976 ft | 230 kts | 311° |
| 2026-05-06 10:30 | 52.24170 | 20.40765 | 4968 ft | 244 kts | 345° |
| 2026-05-06 10:30 | 52.25873 | 20.40813 | 4824 ft | 251 kts | 19° |
| 2026-05-06 10:30 | 52.27250 | 20.42400 | 4541 ft | 247 kts | 56° |
| 2026-05-06 10:30 | 52.27850 | 20.44985 | 4346 ft | 241 kts | 88° |
| 2026-05-06 10:31 | 52.27979 | 20.47671 | 4215 ft | 237 kts | 91° |
| 2026-05-06 10:31 | 52.28070 | 20.50342 | 4151 ft | 231 kts | 91° |
| 2026-05-06 10:31 | 52.28172 | 20.52980 | 4073 ft | 231 kts | 94° |
| 2026-05-06 10:31 | 52.27988 | 20.55574 | 4000 ft | 233 kts | 111° |
| 2026-05-06 10:32 | 52.27438 | 20.58037 | 3989 ft | 232 kts | 117° |
| 2026-05-06 10:32 | 52.26813 | 20.60455 | 3971 ft | 229 kts | 118° |
| 2026-05-06 10:32 | 52.26149 | 20.62870 | 3980 ft | 233 kts | 119° |
| 2026-05-06 10:32 | 52.25476 | 20.65253 | 3977 ft | 232 kts | 119° |
| 2026-05-06 10:33 | 52.24802 | 20.67623 | 3862 ft | 229 kts | 119° |
| 2026-05-06 10:33 | 52.24135 | 20.69963 | 3590 ft | 229 kts | 119° |
| 2026-05-06 10:33 | 52.23464 | 20.72322 | 3285 ft | 227 kts | 119° |
| 2026-05-06 10:33 | 52.22805 | 20.74639 | 2992 ft | 225 kts | 117° |
| 2026-05-06 10:34 | 52.22161 | 20.76919 | 2705 ft | 218 kts | 118° |
| 2026-05-06 10:34 | 52.21546 | 20.79099 | 2481 ft | 204 kts | 118° |
| 2026-05-06 10:34 | 52.20963 | 20.81162 | 2209 ft | 192 kts | 119° |
| 2026-05-06 10:34 | 52.20418 | 20.83088 | 1918 ft | 182 kts | 118° |
| 2026-05-06 10:35 | 52.19913 | 20.84875 | 1660 ft | 167 kts | 117° |
| 2026-05-06 10:35 | 52.19450 | 20.86514 | 1421 ft | 153 kts | 117° |
| 2026-05-06 10:35 | 52.19011 | 20.88063 | 1248 ft | 150 kts | 117° |
| 2026-05-06 10:35 | 52.18569 | 20.89617 | 1035 ft | 149 kts | 118° |
| 2026-05-06 10:36 | 52.18132 | 20.91153 | 842 ft | 149 kts | 118° |
| 2026-05-06 10:36 | 52.17706 | 20.92687 | 667 ft | 148 kts | 117° |
| 2026-05-06 10:36 | 52.17278 | 20.94215 | 468 ft | 147 kts | 118° |
| 2026-05-06 10:36 | 52.16860 | 20.95677 | 366 ft | 133 kts | 117° |
| 2026-05-06 10:37 | 52.16543 | 20.96814 | 366 ft | 85 kts | 115° |
| 2026-05-06 10:37 | 52.16348 | 20.97513 | 366 ft | 56 kts | 115° |
| 2026-05-06 10:37 | 52.16223 | 20.97963 | 366 ft | 31 kts | 115° |
| 2026-05-06 10:37 | 52.16154 | 20.98207 | 366 ft | 19 kts | 114° |
| 2026-05-06 10:38 | 52.16105 | 20.98348 | 366 ft | 11 kts | 148° |
| 2026-05-06 10:38 | 52.16027 | 20.98323 | 366 ft | 11 kts | 204° |
| 2026-05-06 10:38 | 52.15955 | 20.98267 | 366 ft | 11 kts | 205° |
| 2026-05-06 10:38 | 52.15881 | 20.98212 | 366 ft | 11 kts | 205° |
| 2026-05-06 10:39 | 52.15795 | 20.98147 | 366 ft | 14 kts | 204° |
| 2026-05-06 10:39 | 52.15705 | 20.98080 | 366 ft | 14 kts | 205° |
| 2026-05-06 10:39 | 52.15634 | 20.97984 | 366 ft | 13 kts | 259° |
| 2026-05-06 10:39 | 52.15692 | 20.97878 | 366 ft | 13 kts | 332° |
| 2026-05-06 10:40 | 52.15776 | 20.97806 | 366 ft | 13 kts | 332° |
| 2026-05-06 10:40 | 52.15860 | 20.97732 | 366 ft | 13 kts | 331° |
| 2026-05-06 10:40 | 52.15944 | 20.97659 | 366 ft | 13 kts | 332° |
| 2026-05-06 10:40 | 52.16027 | 20.97586 | 366 ft | 13 kts | 332° |
| 2026-05-06 10:41 | 52.16111 | 20.97514 | 366 ft | 13 kts | 332° |
| 2026-05-06 10:41 | 52.16194 | 20.97442 | 366 ft | 13 kts | 331° |
| 2026-05-06 10:41 | 52.16209 | 20.97428 | 366 ft | 0 kts | 331° |
| 2026-05-06 10:45 | 52.16213 | 20.97425 | 366 ft | 2 kts | 331° |
| 2026-05-06 10:45 | 52.16245 | 20.97396 | 366 ft | 9 kts | 331° |
| 2026-05-06 10:45 | 52.16320 | 20.97331 | 366 ft | 14 kts | 332° |
| 2026-05-06 10:45 | 52.16425 | 20.97238 | 366 ft | 19 kts | 333° |
| 2026-05-06 10:46 | 52.16545 | 20.97136 | 366 ft | 19 kts | 332° |
| 2026-05-06 10:46 | 52.16657 | 20.97039 | 366 ft | 17 kts | 332° |
| 2026-05-06 10:46 | 52.16760 | 20.96948 | 366 ft | 16 kts | 332° |
| 2026-05-06 10:46 | 52.16857 | 20.96865 | 366 ft | 14 kts | 332° |
| 2026-05-06 10:47 | 52.16944 | 20.96789 | 366 ft | 13 kts | 331° |
| 2026-05-06 10:47 | 52.17027 | 20.96717 | 366 ft | 12 kts | 332° |
| 2026-05-06 10:47 | 52.17104 | 20.96669 | 366 ft | 11 kts | 11° |
| 2026-05-06 10:47 | 52.17151 | 20.96763 | 366 ft | 10 kts | 64° |
| 2026-05-06 10:48 | 52.17133 | 20.96859 | 366 ft | 9 kts | 141° |
| 2026-05-06 10:48 | 52.17126 | 20.96948 | 366 ft | 8 kts | 64° |
| 2026-05-06 10:48 | 52.17143 | 20.97000 | 366 ft | 3 kts | 62° |